Noti, Oregon
Current Conditions -  °F | °C
As of 6:54 AM on Friday 24 Oct 2014 (Local Time) from KEUG Reporting Station
Overcast Overcast  
Wind Chill: 49°   Ceiling: 15000
Heat Index: 49°   Visibility: 7mi
Dew Point: 47°   Wind: 3mph
Humidity: 93%   Direction: 60°ENE
Pressure: 29.98"   Gusts: NA
Location:  44.06°N, 123.45°W
Report Text: KEUG 241354Z 06003KT 7SM SCT070 OVC150 09/08 A2998 RMK AO2 SLP152 T00940083
Loading
Personal Weather Stations






























Interactive Weather Map New forecast layout! Learn more

10-Day Weather Forecast

Advertisements
Track Severe Weather on mobile